Time;durP1;ratioP1;P1;durP2;ratioP2;P2;SDS_P1;SDS_P2;PMS_P1;PMS_P2;Temp;Humidity;BMP_temperature;BMP_pressure;BME280_temperature;BME280_humidity;BME280_pressure;Samples;Min_cycle;Max_cycle;Signal;HPM_P1;HPM_P2
2021/10/20 00:00:28;;;;;;;2.33;2.13;;;14.20;99.90;;;;;;5092725;28;20184;-70
2021/10/20 00:02:55;;;;;;;2.13;1.93;;;14.20;99.90;;;;;;5091566;28;20926;-69
2021/10/20 00:05:21;;;;;;;2.63;2.43;;;14.10;99.90;;;;;;5091859;28;20842;-70
2021/10/20 00:07:47;;;;;;;3.03;2.50;;;14.10;99.90;;;;;;5092685;28;20451;-69
2021/10/20 00:10:14;;;;;;;2.40;1.83;;;14.00;99.90;;;;;;5092604;28;20914;-69
2021/10/20 00:12:40;;;;;;;2.20;2.00;;;14.00;99.90;;;;;;5092406;28;20902;-68
2021/10/20 00:15:09;;;;;;;1.60;1.47;;;14.00;99.90;;;;;;5092252;28;20409;-68
2021/10/20 00:17:35;;;;;;;2.47;2.27;;;14.00;99.90;;;;;;5092137;28;20965;-69
2021/10/20 00:20:06;;;;;;;2.07;1.87;;;14.00;99.90;;;;;;5091284;28;20395;-70
2021/10/20 00:22:33;;;;;;;3.20;2.57;;;14.00;99.90;;;;;;5090735;28;20699;-68
2021/10/20 00:24:59;;;;;;;2.93;2.40;;;13.90;99.90;;;;;;5092089;28;20497;-70
2021/10/20 00:27:24;;;;;;;2.50;2.23;;;13.90;99.90;;;;;;5092059;28;20505;-69
2021/10/20 00:29:50;;;;;;;2.63;2.43;;;13.90;99.90;;;;;;5092090;28;20176;-69
2021/10/20 00:32:15;;;;;;;3.10;2.80;;;13.90;99.90;;;;;;5092234;28;20163;-70
2021/10/20 00:34:41;;;;;;;2.80;1.73;;;13.90;99.90;;;;;;5092040;28;20242;-71
2021/10/20 00:37:07;;;;;;;2.50;2.30;;;13.80;99.90;;;;;;5090768;28;20208;-69
2021/10/20 00:39:32;;;;;;;3.20;2.87;;;13.90;99.90;;;;;;5088024;28;20423;-69
2021/10/20 00:41:58;;;;;;;3.00;2.60;;;13.90;99.90;;;;;;5091959;28;20176;-69
2021/10/20 00:44:23;;;;;;;3.63;3.00;;;13.80;99.90;;;;;;5091851;28;20177;-71
2021/10/20 00:46:49;;;;;;;2.90;2.67;;;13.80;99.90;;;;;;5091737;28;20692;-69
2021/10/20 00:49:15;;;;;;;3.37;2.13;;;13.80;99.90;;;;;;5091994;28;20208;-69
2021/10/20 00:51:41;;;;;;;2.93;2.53;;;13.80;99.90;;;;;;5090435;28;20404;-69
2021/10/20 00:54:09;;;;;;;5.87;2.97;;;13.80;99.90;;;;;;5091884;28;20396;-70
2021/10/20 00:56:35;;;;;;;2.77;2.40;;;13.90;99.90;;;;;;5090096;28;20202;-69
2021/10/20 00:59:02;;;;;;;5.07;3.37;;;13.90;99.90;;;;;;5092147;28;20829;-70
2021/10/20 01:01:27;;;;;;;4.00;3.30;;;13.80;99.90;;;;;;5092514;28;20182;-68
2021/10/20 01:03:53;;;;;;;3.30;2.57;;;13.90;99.90;;;;;;5092024;28;20422;-69
2021/10/20 01:06:18;;;;;;;4.67;3.10;;;13.90;99.90;;;;;;5091805;28;20201;-68
2021/10/20 01:08:45;;;;;;;4.80;3.90;;;13.80;99.90;;;;;;5088042;28;20176;-70
2021/10/20 01:11:13;;;;;;;4.20;2.63;;;13.90;99.90;;;;;;5091148;28;20172;-69
2021/10/20 01:13:42;;;;;;;4.40;2.90;;;13.90;99.90;;;;;;5091945;28;20391;-69
2021/10/20 01:16:07;;;;;;;4.17;2.90;;;13.90;99.90;;;;;;5088912;28;20506;-69
2021/10/20 01:18:34;;;;;;;3.90;3.43;;;13.80;99.90;;;;;;5091570;28;20525;-69
2021/10/20 01:21:00;;;;;;;3.80;2.80;;;13.80;99.90;;;;;;5091920;28;20165;-69
2021/10/20 01:23:28;;;;;;;6.93;3.77;;;13.80;99.90;;;;;;5091856;28;20495;-69
2021/10/20 01:25:53;;;;;;;4.27;3.87;;;13.80;99.90;;;;;;5091715;28;20443;-69
2021/10/20 01:28:19;;;;;;;4.33;3.20;;;13.80;99.90;;;;;;5088752;28;20458;-70
2021/10/20 01:30:45;;;;;;;3.70;3.30;;;13.80;99.90;;;;;;5071720;28;20528;-70
2021/10/20 01:33:10;;;;;;;5.10;3.77;;;13.80;99.90;;;;;;5069974;28;20173;-70
2021/10/20 01:35:37;;;;;;;3.90;3.50;;;13.80;99.90;;;;;;5071438;28;20170;-68
2021/10/20 01:38:05;;;;;;;5.57;4.17;;;13.80;99.90;;;;;;5071310;28;20190;-69
2021/10/20 01:40:31;;;;;;;4.90;3.77;;;13.80;99.90;;;;;;5071452;28;20408;-70
2021/10/20 01:42:56;;;;;;;4.60;3.60;;;13.70;99.90;;;;;;5071415;28;20405;-69
2021/10/20 01:45:22;;;;;;;5.53;4.33;;;13.80;99.90;;;;;;5071009;28;20182;-69
2021/10/20 01:47:51;;;;;;;4.13;3.73;;;13.80;99.90;;;;;;5071240;28;20186;-68
2021/10/20 01:50:16;;;;;;;5.50;4.47;;;13.80;99.90;;;;;;5071359;28;20409;-69
2021/10/20 01:52:42;;;;;;;6.87;4.70;;;13.80;99.90;;;;;;5071195;28;20911;-68
2021/10/20 01:55:14;;;;;;;10.53;4.73;;;13.80;99.90;;;;;;5071209;28;20249;-68
2021/10/20 01:57:39;;;;;;;6.00;4.60;;;13.70;99.90;;;;;;5071180;28;20508;-68
2021/10/20 02:00:06;;;;;;;5.20;4.70;;;13.80;99.90;;;;;;5071203;28;20496;-68
2021/10/20 02:02:32;;;;;;;5.60;4.03;;;13.80;99.90;;;;;;5071151;28;20199;-69
2021/10/20 02:04:58;;;;;;;7.30;5.10;;;13.70;99.90;;;;;;5069813;28;20765;-69
2021/10/20 02:07:26;;;;;;;7.77;5.40;;;13.80;99.90;;;;;;5070898;28;20464;-68
2021/10/20 02:09:52;;;;;;;5.37;4.70;;;13.80;99.90;;;;;;5069904;28;20708;-70
2021/10/20 02:12:17;;;;;;;5.53;4.60;;;13.70;99.90;;;;;;5071063;28;20405;-68
2021/10/20 02:14:43;;;;;;;5.60;4.83;;;13.70;99.90;;;;;;5070962;28;20688;-69
2021/10/20 02:17:09;;;;;;;8.27;5.60;;;13.70;99.90;;;;;;5071004;28;20194;-68
2021/10/20 02:19:34;;;;;;;7.17;4.73;;;13.70;99.90;;;;;;5069654;28;20684;-69
2021/10/20 02:22:02;;;;;;;5.50;4.63;;;13.70;99.90;;;;;;5071007;28;20163;-69
2021/10/20 02:24:28;;;;;;;7.13;4.20;;;13.70;99.90;;;;;;5071034;28;20170;-69
2021/10/20 02:26:53;;;;;;;6.53;4.33;;;13.70;99.90;;;;;;5069665;28;20448;-70
2021/10/20 02:29:19;;;;;;;8.73;4.90;;;13.70;99.90;;;;;;5073464;28;20166;-68
2021/10/20 02:31:48;;;;;;;6.13;4.50;;;13.70;99.90;;;;;;5073595;28;20177;-70
2021/10/20 02:34:15;;;;;;;6.63;4.60;;;13.60;99.90;;;;;;5074289;28;20172;-69
2021/10/20 02:36:41;;;;;;;6.80;4.33;;;13.60;99.90;;;;;;5074408;28;20432;-70
2021/10/20 02:39:07;;;;;;;6.20;4.47;;;13.60;99.90;;;;;;5074505;28;20896;-70
2021/10/20 02:41:33;;;;;;;5.10;4.60;;;13.60;99.90;;;;;;5074346;28;20926;-69
2021/10/20 02:43:59;;;;;;;5.60;4.43;;;13.50;99.90;;;;;;5072888;28;20427;-70
2021/10/20 02:46:24;;;;;;;5.70;4.97;;;13.60;99.90;;;;;;5074285;28;20259;-69
2021/10/20 02:48:50;;;;;;;4.80;3.80;;;13.50;99.90;;;;;;5074392;28;20178;-70
2021/10/20 02:51:15;;;;;;;6.20;4.33;;;13.50;99.90;;;;;;5074085;28;20163;-69
2021/10/20 02:53:41;;;;;;;7.17;4.27;;;13.50;99.90;;;;;;5072827;28;20174;-71
2021/10/20 02:56:06;;;;;;;4.13;3.53;;;13.50;99.90;;;;;;5074079;28;20186;-69
2021/10/20 02:58:32;;;;;;;7.77;4.57;;;13.40;99.90;;;;;;5073906;28;20247;-69
2021/10/20 03:00:57;;;;;;;5.50;4.10;;;13.40;99.90;;;;;;5074060;28;20166;-69
2021/10/20 03:03:23;;;;;;;5.87;4.20;;;13.40;99.90;;;;;;5073963;28;20166;-70
2021/10/20 03:05:48;;;;;;;7.23;4.33;;;13.40;99.90;;;;;;5073857;28;20192;-70
2021/10/20 03:08:14;;;;;;;6.03;3.50;;;13.40;99.90;;;;;;5073945;28;20217;-70
2021/10/20 03:10:40;;;;;;;6.20;4.60;;;13.40;99.90;;;;;;5074031;28;20163;-70
2021/10/20 03:13:05;;;;;;;7.47;4.90;;;13.40;99.90;;;;;;5073791;28;20158;-71
2021/10/20 03:15:31;;;;;;;7.97;5.83;;;13.40;99.90;;;;;;5073049;28;20409;-69
2021/10/20 03:17:57;;;;;;;6.97;4.50;;;13.30;99.90;;;;;;5073743;28;20286;-69
2021/10/20 03:20:22;;;;;;;4.83;4.37;;;13.30;99.90;;;;;;5073821;28;20599;-69
2021/10/20 03:22:48;;;;;;;7.50;5.43;;;13.30;99.90;;;;;;5073789;28;20166;-70
2021/10/20 03:25:13;;;;;;;4.23;3.83;;;13.30;99.90;;;;;;5072791;28;20791;-70
2021/10/20 03:27:51;;;;;;;4.17;3.60;;;13.30;99.90;;;;;;5073505;28;20186;-70
2021/10/20 03:30:18;;;;;;;7.00;4.77;;;13.30;99.90;;;;;;5084687;28;20254;-70
2021/10/20 03:32:44;;;;;;;6.57;4.63;;;13.30;99.90;;;;;;5093619;28;20736;-69
2021/10/20 03:35:11;;;;;;;7.27;5.40;;;13.30;99.90;;;;;;5093636;28;20411;-69
2021/10/20 03:37:37;;;;;;;4.80;3.60;;;13.30;99.90;;;;;;5093474;28;20181;-71
2021/10/20 03:40:04;;;;;;;5.47;4.10;;;13.30;99.90;;;;;;5093525;28;20750;-71
2021/10/20 03:42:29;;;;;;;4.97;3.73;;;13.30;99.90;;;;;;5093384;28;20415;-69
2021/10/20 03:44:55;;;;;;;10.33;5.47;;;13.30;99.90;;;;;;5093284;28;20407;-70
2021/10/20 03:47:21;;;;;;;6.03;4.40;;;13.30;99.90;;;;;;5093334;28;20212;-70
2021/10/20 03:49:48;;;;;;;6.00;3.87;;;13.40;99.90;;;;;;5093364;28;20846;-69
2021/10/20 03:52:13;;;;;;;4.23;3.60;;;13.30;99.90;;;;;;5093149;28;20408;-70
2021/10/20 03:54:39;;;;;;;5.27;4.00;;;13.30;99.90;;;;;;5093162;28;20776;-70
2021/10/20 03:57:04;;;;;;;7.00;4.17;;;13.30;99.90;;;;;;5093014;28;20189;-69
2021/10/20 03:59:30;;;;;;;5.97;4.90;;;13.40;99.90;;;;;;5093112;28;20185;-70
2021/10/20 04:01:56;;;;;;;7.37;5.10;;;13.40;99.90;;;;;;5092988;28;20226;-68
2021/10/20 04:04:21;;;;;;;5.87;4.93;;;13.40;99.90;;;;;;5093002;28;20347;-68
2021/10/20 04:06:47;;;;;;;7.20;4.07;;;13.40;99.90;;;;;;5092825;28;20221;-68
2021/10/20 04:09:12;;;;;;;5.07;3.13;;;13.40;99.90;;;;;;5092933;28;20166;-69
2021/10/20 04:11:38;;;;;;;4.57;3.70;;;13.40;99.90;;;;;;5092678;28;20168;-68
2021/10/20 04:14:03;;;;;;;7.67;4.30;;;13.40;99.90;;;;;;5092757;28;20245;-70
2021/10/20 04:16:29;;;;;;;4.37;3.87;;;13.30;99.90;;;;;;5092763;28;20191;-68
2021/10/20 04:18:54;;;;;;;6.07;4.23;;;13.30;99.90;;;;;;5092657;28;20554;-69
2021/10/20 04:21:19;;;;;;;5.73;3.87;;;13.30;99.90;;;;;;5092634;28;20211;-69
2021/10/20 04:23:45;;;;;;;6.07;4.10;;;13.30;99.90;;;;;;5092555;28;20173;-69
2021/10/20 04:26:10;;;;;;;6.40;4.93;;;13.30;99.90;;;;;;5092499;28;20193;-68
2021/10/20 04:28:36;;;;;;;8.07;4.77;;;13.30;99.90;;;;;;5092722;28;20533;-70
2021/10/20 04:31:02;;;;;;;5.30;3.27;;;13.30;99.90;;;;;;5092451;28;20201;-68
2021/10/20 04:33:27;;;;;;;3.67;3.37;;;13.30;99.90;;;;;;5092966;28;20818;-68
2021/10/20 04:35:52;;;;;;;4.80;3.83;;;13.40;99.90;;;;;;5092447;28;20170;-69
2021/10/20 04:38:18;;;;;;;4.33;3.33;;;13.40;99.90;;;;;;5092410;28;20197;-69
2021/10/20 04:40:44;;;;;;;4.50;4.10;;;13.40;99.90;;;;;;5092290;28;20169;-69
2021/10/20 04:43:09;;;;;;;7.53;4.20;;;13.40;99.90;;;;;;5092234;28;20208;-70
2021/10/20 04:45:35;;;;;;;4.20;2.80;;;13.40;99.90;;;;;;5092119;28;20686;-70
2021/10/20 04:48:00;;;;;;;4.10;3.67;;;13.30;99.90;;;;;;5092232;28;20181;-71
2021/10/20 04:50:26;;;;;;;3.90;3.40;;;13.40;99.90;;;;;;5091928;28;20190;-72
2021/10/20 04:52:51;;;;;;;4.13;3.73;;;13.30;99.90;;;;;;5091775;28;20234;-70
2021/10/20 04:55:17;;;;;;;4.03;3.40;;;13.30;99.90;;;;;;5091856;28;20169;-70
2021/10/20 04:57:51;;;;;;;5.63;3.73;;;13.30;99.90;;;;;;5092084;28;20192;-70
2021/10/20 05:00:19;;;;;;;4.73;2.77;;;13.30;99.90;;;;;;5092021;28;20187;-71
2021/10/20 05:02:45;;;;;;;5.67;4.23;;;13.30;99.90;;;;;;5091630;28;20403;-71
2021/10/20 05:05:11;;;;;;;3.30;3.00;;;13.30;99.90;;;;;;5091939;28;20400;-70
2021/10/20 05:07:53;;;;;;;4.37;3.33;;;13.30;99.90;;;;;;5091701;28;20976;-69
2021/10/20 05:10:23;;;;;;;5.00;3.47;;;13.20;99.90;;;;;;5091943;28;20185;-70
2021/10/20 05:12:49;;;;;;;4.37;3.67;;;13.20;99.90;;;;;;5091755;28;20395;-70
2021/10/20 05:15:15;;;;;;;7.33;4.67;;;13.20;99.90;;;;;;5091782;28;20458;-69
2021/10/20 05:17:42;;;;;;;3.80;2.83;;;13.20;99.90;;;;;;5091713;28;20945;-69
2021/10/20 05:20:09;;;;;;;4.07;3.50;;;13.20;99.90;;;;;;5091711;28;20454;-70
2021/10/20 05:22:36;;;;;;;4.33;3.40;;;13.20;99.90;;;;;;5091672;28;20411;-69
2021/10/20 05:25:02;;;;;;;3.33;2.80;;;13.10;99.90;;;;;;5091652;28;20794;-69
2021/10/20 05:27:27;;;;;;;5.13;4.03;;;13.20;99.90;;;;;;5091778;28;20483;-70
2021/10/20 05:29:53;;;;;;;4.90;3.83;;;13.20;99.90;;;;;;5085776;28;20576;-70
2021/10/20 05:32:18;;;;;;;3.13;2.87;;;13.20;99.90;;;;;;5082072;28;20166;-69
2021/10/20 05:34:44;;;;;;;4.87;4.47;;;13.20;99.90;;;;;;5071351;28;20645;-70
2021/10/20 05:37:09;;;;;;;3.20;2.90;;;13.20;99.90;;;;;;5087408;28;20200;-71
2021/10/20 05:39:35;;;;;;;5.50;4.20;;;13.20;99.90;;;;;;5091503;28;20722;-70
2021/10/20 05:42:00;;;;;;;4.40;3.70;;;13.20;99.90;;;;;;5091651;28;20169;-70
2021/10/20 05:44:26;;;;;;;4.87;4.47;;;13.20;99.90;;;;;;5091677;28;20173;-71
2021/10/20 05:46:52;;;;;;;4.70;3.07;;;13.20;99.90;;;;;;5091338;28;20262;-69
2021/10/20 05:49:17;;;;;;;4.17;3.60;;;13.20;99.90;;;;;;5085040;28;20174;-69
2021/10/20 05:51:43;;;;;;;4.43;3.13;;;13.20;99.90;;;;;;5091242;28;20408;-69
2021/10/20 05:54:09;;;;;;;4.00;3.30;;;13.20;99.90;;;;;;5091178;28;20172;-69
2021/10/20 05:56:34;;;;;;;3.60;3.17;;;13.20;99.90;;;;;;5091280;28;20201;-70
2021/10/20 05:58:59;;;;;;;3.70;2.90;;;13.20;99.90;;;;;;5091284;28;20180;-70
2021/10/20 06:01:25;;;;;;;3.27;2.97;;;13.30;99.90;;;;;;5091257;28;20209;-68
2021/10/20 06:03:51;;;;;;;5.87;3.20;;;13.30;99.90;;;;;;5093195;28;20178;-69
2021/10/20 06:06:17;;;;;;;3.50;2.50;;;13.30;99.90;;;;;;5094866;28;20581;-69
2021/10/20 06:08:43;;;;;;;4.23;2.77;;;13.40;99.90;;;;;;5095026;28;20169;-70
2021/10/20 06:11:08;;;;;;;3.27;2.90;;;13.30;99.90;;;;;;5094169;28;20914;-68
2021/10/20 06:13:33;;;;;;;2.90;2.70;;;13.30;99.90;;;;;;5094966;28;20192;-68
2021/10/20 06:15:59;;;;;;;4.13;3.00;;;13.40;99.90;;;;;;5095024;28;20170;-68
2021/10/20 06:18:25;;;;;;;3.47;3.00;;;13.40;99.90;;;;;;5095083;28;20198;-69
2021/10/20 06:20:51;;;;;;;4.40;3.47;;;13.40;99.90;;;;;;5093968;28;20174;-69
2021/10/20 06:23:17;;;;;;;2.50;1.97;;;13.40;99.90;;;;;;5095271;28;20819;-69
2021/10/20 06:25:43;;;;;;;3.67;2.43;;;13.40;99.90;;;;;;5095039;28;20683;-69
2021/10/20 06:28:08;;;;;;;3.13;2.50;;;13.40;99.90;;;;;;5094965;28;20419;-70
2021/10/20 06:30:34;;;;;;;2.50;2.30;;;13.40;99.90;;;;;;5094896;28;20177;-70
2021/10/20 06:32:59;;;;;;;2.83;2.63;;;13.40;99.90;;;;;;5087976;28;20201;-69
2021/10/20 06:35:25;;;;;;;3.20;2.60;;;13.50;99.90;;;;;;5086122;28;20714;-69
2021/10/20 06:37:52;;;;;;;3.50;2.40;;;13.50;99.90;;;;;;5094921;28;20219;-70
2021/10/20 06:40:18;;;;;;;2.33;2.17;;;13.50;99.90;;;;;;5095125;28;20172;-71
2021/10/20 06:42:44;;;;;;;3.33;2.80;;;13.50;99.90;;;;;;5094764;28;20404;-71
2021/10/20 06:45:10;;;;;;;2.83;2.50;;;13.50;99.90;;;;;;5094768;28;20166;-70
2021/10/20 06:47:36;;;;;;;3.30;2.70;;;13.60;99.90;;;;;;5094706;28;20197;-71
2021/10/20 06:50:01;;;;;;;3.13;2.83;;;13.60;99.90;;;;;;5094660;28;20484;-71
2021/10/20 06:52:27;;;;;;;3.87;2.40;;;13.70;99.90;;;;;;5094843;28;20161;-70
2021/10/20 06:54:52;;;;;;;2.50;2.23;;;13.90;99.90;;;;;;5094525;28;20532;-71
2021/10/20 06:57:18;;;;;;;2.93;2.70;;;13.90;99.90;;;;;;5094414;28;20687;-71
2021/10/20 06:59:43;;;;;;;2.80;2.37;;;14.00;99.90;;;;;;5093544;28;20170;-72
2021/10/20 07:02:09;;;;;;;2.90;2.60;;;14.10;99.90;;;;;;5094710;28;20257;-71
2021/10/20 07:04:34;;;;;;;2.60;2.33;;;14.10;99.90;;;;;;5094213;28;20169;-71
2021/10/20 07:07:00;;;;;;;2.67;2.47;;;14.10;99.90;;;;;;5086901;28;20209;-71
2021/10/20 07:09:25;;;;;;;2.20;2.00;;;14.10;99.90;;;;;;5073938;28;20162;-71
2021/10/20 07:11:51;;;;;;;2.67;2.30;;;14.10;99.90;;;;;;5082484;28;20291;-70
2021/10/20 07:14:16;;;;;;;2.53;2.33;;;14.00;99.90;;;;;;5093569;28;20634;-71
2021/10/20 07:16:43;;;;;;;2.97;2.50;;;14.10;99.90;;;;;;5093908;28;20246;-70
2021/10/20 07:19:08;;;;;;;3.30;3.00;;;14.20;99.90;;;;;;5086401;28;20194;-71
2021/10/20 07:21:35;;;;;;;4.00;2.63;;;14.20;99.90;;;;;;5092708;28;20415;-70
2021/10/20 07:24:02;;;;;;;3.40;2.53;;;14.10;99.90;;;;;;5093459;28;20181;-70
2021/10/20 07:26:52;;;;;;;3.17;2.30;;;14.20;99.90;;;;;;5094564;28;20476;-71
2021/10/20 07:29:35;;;;;;;2.83;2.33;;;14.20;99.90;;;;;;5092557;28;20801;-71
2021/10/20 07:32:22;;;;;;;3.23;2.40;;;14.30;99.90;;;;;;5092848;28;20445;-71
2021/10/20 07:34:48;;;;;;;3.60;2.47;;;14.50;99.90;;;;;;5092454;28;20404;-70
2021/10/20 07:37:13;;;;;;;2.23;1.90;;;14.50;99.90;;;;;;5094001;28;20797;-70
2021/10/20 07:39:38;;;;;;;2.63;2.43;;;14.60;99.90;;;;;;5093497;28;20541;-70
2021/10/20 07:42:04;;;;;;;3.40;2.60;;;14.70;99.90;;;;;;5093230;28;20162;-69
2021/10/20 07:44:30;;;;;;;3.33;2.47;;;15.00;99.90;;;;;;5093267;28;20161;-71
2021/10/20 07:46:55;;;;;;;4.00;2.80;;;15.00;99.90;;;;;;5093319;28;20232;-70
2021/10/20 07:49:21;;;;;;;4.53;2.07;;;15.00;99.90;;;;;;5093188;28;20167;-71
2021/10/20 07:51:46;;;;;;;2.00;1.80;;;15.00;99.90;;;;;;5093102;28;20166;-70
2021/10/20 07:54:12;;;;;;;3.00;2.13;;;15.20;99.90;;;;;;5093509;28;20682;-71
2021/10/20 07:56:42;;;;;;;2.57;2.37;;;15.20;99.90;;;;;;5093519;28;20263;-71
2021/10/20 07:59:08;;;;;;;2.90;2.30;;;15.10;99.90;;;;;;5093469;28;20218;-72
2021/10/20 08:01:33;;;;;;;3.10;2.37;;;15.10;99.90;;;;;;5087010;28;20442;-71
2021/10/20 08:03:59;;;;;;;2.30;2.10;;;15.20;99.90;;;;;;5092757;28;20179;-71
2021/10/20 08:06:24;;;;;;;4.20;2.07;;;15.30;99.90;;;;;;5092764;28;20278;-71
2021/10/20 08:08:50;;;;;;;2.40;1.80;;;15.40;99.90;;;;;;5092939;28;20178;-71
2021/10/20 08:11:15;;;;;;;2.43;1.97;;;15.70;99.90;;;;;;5092569;28;20198;-71
2021/10/20 08:13:41;;;;;;;2.43;1.90;;;16.20;99.90;;;;;;5092768;28;20258;-70
2021/10/20 08:16:06;;;;;;;2.30;1.90;;;16.10;99.90;;;;;;5092783;28;20218;-70
2021/10/20 08:18:32;;;;;;;2.77;1.87;;;16.70;99.90;;;;;;5092550;28;20245;-71
2021/10/20 08:20:57;;;;;;;2.93;2.10;;;16.90;99.90;;;;;;5092535;28;20185;-70
2021/10/20 08:23:23;;;;;;;4.57;2.10;;;16.70;99.90;;;;;;5092521;28;20709;-71
2021/10/20 08:25:48;;;;;;;2.30;2.03;;;16.70;99.90;;;;;;5091407;28;20557;-71
2021/10/20 08:28:14;;;;;;;2.40;2.03;;;16.70;99.90;;;;;;5093445;28;20272;-71
2021/10/20 08:30:39;;;;;;;1.97;1.70;;;16.70;99.90;;;;;;5092997;28;20170;-71
2021/10/20 08:33:05;;;;;;;2.40;1.93;;;16.80;99.90;;;;;;5092506;28;20164;-70
2021/10/20 08:35:31;;;;;;;2.77;2.00;;;16.70;99.90;;;;;;5092602;28;20181;-71
2021/10/20 08:38:01;;;;;;;1.80;1.70;;;17.00;99.90;;;;;;5092343;28;20469;-71
2021/10/20 08:40:32;;;;;;;2.23;1.90;;;17.00;99.90;;;;;;5092419;28;20194;-71
2021/10/20 08:42:58;;;;;;;3.00;2.23;;;17.20;99.90;;;;;;5092406;28;20403;-71
2021/10/20 08:45:24;;;;;;;1.60;1.50;;;17.40;99.90;;;;;;5092318;28;20396;-71
2021/10/20 08:47:50;;;;;;;1.80;1.70;;;17.40;99.90;;;;;;5092444;28;20973;-71
2021/10/20 08:50:24;;;;;;;2.13;2.03;;;17.40;99.90;;;;;;5092219;28;20428;-71
2021/10/20 08:52:50;;;;;;;2.00;1.90;;;17.40;99.90;;;;;;5092309;28;20257;-71
2021/10/20 08:55:17;;;;;;;1.90;1.80;;;17.20;99.90;;;;;;5092017;28;20405;-71
2021/10/20 08:57:44;;;;;;;1.77;1.50;;;17.00;99.90;;;;;;5092219;28;20478;-71
2021/10/20 09:00:11;;;;;;;3.00;1.90;;;16.80;99.90;;;;;;5092102;28;20404;-71
2021/10/20 09:02:41;;;;;;;1.93;1.50;;;16.80;99.90;;;;;;5091992;28;20794;-71
2021/10/20 09:05:12;;;;;;;3.53;2.57;;;16.70;99.90;;;;;;5091919;28;20766;-71
2021/10/20 09:07:44;;;;;;;2.77;1.93;;;16.60;99.90;;;;;;5091767;28;20973;-71
2021/10/20 09:10:11;;;;;;;1.60;1.50;;;16.60;99.90;;;;;;5092423;28;20400;-71
2021/10/20 09:12:37;;;;;;;1.70;1.60;;;16.70;99.90;;;;;;5092164;28;20465;-70
2021/10/20 09:15:06;;;;;;;2.20;2.00;;;16.70;99.90;;;;;;5091954;28;20692;-70
2021/10/20 09:17:52;;;;;;;2.33;2.00;;;16.60;99.90;;;;;;5092041;28;20423;-70
2021/10/20 09:20:28;;;;;;;3.13;1.50;;;16.60;99.90;;;;;;5090938;28;20412;-71
2021/10/20 09:23:06;;;;;;;2.30;1.70;;;16.70;99.90;;;;;;5090603;28;20496;-71
2021/10/20 09:25:39;;;;;;;2.00;1.70;;;16.80;99.90;;;;;;5091915;28;20637;-70
2021/10/20 09:28:07;;;;;;;2.10;1.63;;;16.80;99.90;;;;;;5091458;28;20441;-70
2021/10/20 09:30:33;;;;;;;1.90;1.80;;;16.70;99.90;;;;;;5091809;28;20406;-71
2021/10/20 09:32:59;;;;;;;2.40;1.87;;;16.60;99.90;;;;;;5091920;28;20405;-70
2021/10/20 09:35:29;;;;;;;1.50;1.27;;;16.60;99.90;;;;;;5091738;28;20196;-70
2021/10/20 09:37:59;;;;;;;1.50;1.40;;;16.50;99.90;;;;;;5093877;28;20504;-70
2021/10/20 09:40:26;;;;;;;2.10;1.73;;;16.40;99.90;;;;;;5095732;28;20391;-70
2021/10/20 09:42:56;;;;;;;1.70;1.47;;;16.40;99.90;;;;;;5095467;28;20403;-69
2021/10/20 09:45:23;;;;;;;2.17;1.80;;;16.40;99.90;;;;;;5095251;28;20446;-69
2021/10/20 09:47:49;;;;;;;2.93;2.00;;;16.40;99.90;;;;;;5095594;28;20450;-69
2021/10/20 09:50:17;;;;;;;1.90;1.63;;;16.40;99.90;;;;;;5094359;28;20442;-70
2021/10/20 09:52:51;;;;;;;1.97;1.83;;;16.50;99.90;;;;;;5095578;28;20404;-70
2021/10/20 09:55:26;;;;;;;1.50;1.40;;;16.50;99.90;;;;;;5094783;28;20416;-69
2021/10/20 09:58:15;;;;;;;2.40;2.20;;;16.60;99.90;;;;;;5095756;28;20422;-71
2021/10/20 10:00:42;;;;;;;1.50;1.40;;;16.40;99.90;;;;;;5092537;28;20413;-70
2021/10/20 10:03:08;;;;;;;3.03;2.20;;;16.30;99.90;;;;;;5093987;28;20414;-70
2021/10/20 10:05:34;;;;;;;1.60;1.50;;;16.20;99.90;;;;;;5093940;28;20449;-70
2021/10/20 10:08:01;;;;;;;2.03;1.83;;;16.10;99.90;;;;;;5095195;28;20455;-71
2021/10/20 10:10:26;;;;;;;2.17;1.97;;;16.00;99.90;;;;;;5095295;28;20544;-70
2021/10/20 10:12:54;;;;;;;2.47;1.80;;;15.90;99.90;;;;;;5095423;28;20413;-75
2021/10/20 10:15:21;;;;;;;2.13;1.87;;;15.90;99.90;;;;;;5095531;28;20652;-76
2021/10/20 10:17:49;;;;;;;2.33;2.13;;;15.70;99.90;;;;;;5095300;28;20452;-73
2021/10/20 10:20:17;;;;;;;2.17;1.80;;;15.70;99.90;;;;;;5094996;28;20416;-70
2021/10/20 10:22:59;;;;;;;1.70;1.60;;;15.70;99.90;;;;;;5094996;28;20506;-71
2021/10/20 10:25:32;;;;;;;8.37;4.30;;;15.80;99.90;;;;;;5095112;28;20463;-75
2021/10/20 10:28:08;;;;;;;3.27;2.97;;;15.80;99.90;;;;;;5091444;28;20438;-70
2021/10/20 10:30:55;;;;;;;12.30;6.93;;;15.90;99.90;;;;;;5083664;28;20402;-70
2021/10/20 10:33:26;;;;;;;3.23;2.60;;;15.80;99.90;;;;;;5094684;28;20829;-70
2021/10/20 10:36:16;;;;;;;3.57;2.57;;;15.80;99.90;;;;;;5074882;28;20447;-70
2021/10/20 10:38:43;;;;;;;10.57;6.00;;;15.90;99.90;;;;;;5074480;28;20408;-69
2021/10/20 10:41:42;;;;;;;10.07;5.47;;;16.00;99.90;;;;;;5074186;28;20913;-70
2021/10/20 10:44:08;;;;;;;2.57;2.37;;;16.00;99.90;;;;;;5073217;28;20448;-70
2021/10/20 10:46:39;;;;;;;2.73;2.13;;;16.00;99.90;;;;;;5077395;28;20452;-70
2021/10/20 10:49:28;;;;;;;2.03;1.83;;;15.90;99.90;;;;;;5093575;28;20481;-70
2021/10/20 10:52:16;;;;;;;2.83;2.17;;;15.90;99.90;;;;;;5094507;28;20401;-70
2021/10/20 10:54:53;;;;;;;2.03;1.93;;;15.70;99.90;;;;;;5094430;28;20413;-70
2021/10/20 10:57:18;;;;;;;3.33;2.53;;;15.70;99.90;;;;;;5094229;28;20433;-70
2021/10/20 11:00:03;;;;;;;2.10;1.80;;;15.80;99.90;;;;;;5092786;28;20415;-70
2021/10/20 11:02:51;;;;;;;4.87;2.13;;;16.00;99.90;;;;;;5094334;28;20164;-70
2021/10/20 11:05:17;;;;;;;3.03;2.17;;;16.00;99.90;;;;;;5094376;28;20406;-70
2021/10/20 11:07:47;;;;;;;1.77;1.67;;;15.80;99.90;;;;;;5094179;28;20461;-70
2021/10/20 11:10:14;;;;;;;3.03;2.73;;;15.90;99.90;;;;;;5094147;28;20415;-70
2021/10/20 11:12:40;;;;;;;2.63;2.23;;;15.80;99.90;;;;;;5094095;28;20401;-70
2021/10/20 11:15:09;;;;;;;2.87;1.80;;;15.90;99.90;;;;;;5094013;28;20405;-71
2021/10/20 11:17:35;;;;;;;2.40;2.20;;;16.00;99.90;;;;;;5094032;28;20191;-70
2021/10/20 11:20:08;;;;;;;3.47;2.50;;;16.00;99.90;;;;;;5093776;28;20424;-70
2021/10/20 11:22:35;;;;;;;2.90;2.37;;;16.00;99.90;;;;;;5093923;28;20543;-69
2021/10/20 11:25:02;;;;;;;3.70;2.57;;;16.10;99.90;;;;;;5075869;28;20432;-70
2021/10/20 11:27:28;;;;;;;3.63;3.17;;;16.20;99.90;;;;;;5085517;28;20462;-72
2021/10/20 11:29:54;;;;;;;3.17;2.17;;;16.30;99.90;;;;;;5093578;28;20466;-69
2021/10/20 11:32:21;;;;;;;2.93;2.27;;;16.40;99.90;;;;;;5093310;28;20404;-71
2021/10/20 11:34:47;;;;;;;3.60;2.20;;;16.30;99.90;;;;;;5093834;28;20510;-69
2021/10/20 11:37:18;;;;;;;2.60;2.40;;;16.40;99.90;;;;;;5093794;28;20803;-69
2021/10/20 11:39:54;;;;;;;2.13;1.77;;;16.40;99.90;;;;;;5093695;28;20413;-69
2021/10/20 11:42:19;;;;;;;2.33;2.03;;;16.40;99.90;;;;;;5093581;28;20412;-69
2021/10/20 11:44:45;;;;;;;3.80;2.40;;;16.30;99.90;;;;;;5093516;28;20409;-69
2021/10/20 11:47:14;;;;;;;2.70;2.50;;;16.30;99.90;;;;;;5092835;28;20207;-69
2021/10/20 11:49:53;;;;;;;2.17;1.67;;;16.50;99.90;;;;;;5093573;28;20165;-69
2021/10/20 11:52:21;;;;;;;2.60;2.37;;;16.40;99.90;;;;;;5091982;28;20417;-70
2021/10/20 11:54:47;;;;;;;5.20;2.90;;;16.50;99.90;;;;;;5093145;28;20406;-69
2021/10/20 11:57:16;;;;;;;2.77;2.20;;;16.40;99.90;;;;;;5093187;28;20433;-70
2021/10/20 11:59:42;;;;;;;3.80;2.67;;;16.50;99.90;;;;;;5093355;28;20254;-69
2021/10/20 12:02:12;;;;;;;3.47;2.13;;;16.60;99.90;;;;;;5093060;28;20936;-70
2021/10/20 12:04:42;;;;;;;3.33;2.20;;;16.50;99.90;;;;;;5089522;28;20179;-69
2021/10/20 12:07:10;;;;;;;9.60;3.10;;;16.60;99.90;;;;;;5072596;28;20452;-69
2021/10/20 12:09:42;;;;;;;1.80;1.70;;;16.70;99.90;;;;;;5072816;28;20907;-69
2021/10/20 12:12:09;;;;;;;3.30;2.13;;;16.70;99.90;;;;;;5072770;28;20767;-70
2021/10/20 12:14:40;;;;;;;2.33;2.13;;;16.80;99.90;;;;;;5072507;28;20504;-71
2021/10/20 12:17:07;;;;;;;1.90;1.80;;;16.70;99.90;;;;;;5072564;28;20492;-70
2021/10/20 12:19:36;;;;;;;2.30;1.83;;;16.80;99.90;;;;;;5072557;28;20422;-70
2021/10/20 12:22:05;;;;;;;2.03;1.60;;;16.80;99.90;;;;;;5090815;28;20405;-71
2021/10/20 12:24:48;;;;;;;2.20;2.00;;;16.90;99.90;;;;;;5092678;28;21114;-70
2021/10/20 12:27:15;;;;;;;1.90;1.77;;;17.00;99.90;;;;;;5092234;28;20482;-69
2021/10/20 12:29:49;;;;;;;2.67;1.90;;;17.20;99.90;;;;;;5092599;28;20399;-69
2021/10/20 12:32:18;;;;;;;2.10;1.87;;;17.30;99.90;;;;;;5092647;28;20473;-68
2021/10/20 12:34:58;;;;;;;2.20;1.50;;;17.40;99.90;;;;;;5091457;28;20402;-70
2021/10/20 12:37:31;;;;;;;2.90;1.77;;;17.60;99.90;;;;;;5091111;28;20513;-71
2021/10/20 12:40:05;;;;;;;3.30;3.00;;;17.70;99.90;;;;;;5092553;28;20404;-69
2021/10/20 12:42:38;;;;;;;2.10;1.90;;;17.80;99.90;;;;;;5092523;28;20407;-70
2021/10/20 12:45:07;;;;;;;2.13;1.73;;;18.00;99.90;;;;;;5092354;28;20918;-67
2021/10/20 12:47:32;;;;;;;2.07;1.90;;;18.20;99.90;;;;;;5092210;28;20466;-69